sensor_id;sensor_type;location;lat;lon;timestamp;pressure;altitude;pressure_sealevel;temperature;humidity
58239;BME280;44037;55.638;37.356;2022-12-18T00:01:04;98594.06;;;-4.12;100.00
58239;BME280;44037;55.638;37.356;2022-12-18T00:03:32;98562.03;;;-4.11;100.00
58239;BME280;44037;55.638;37.356;2022-12-18T00:05:59;98558.69;;;-4.10;100.00
58239;BME280;44037;55.638;37.356;2022-12-18T00:08:27;98549.47;;;-4.10;100.00
58239;BME280;44037;55.638;37.356;2022-12-18T00:10:54;98557.84;;;-4.11;100.00
58239;BME280;44037;55.638;37.356;2022-12-18T00:13:24;98553.06;;;-4.05;100.00
58239;BME280;44037;55.638;37.356;2022-12-18T00:15:52;98543.69;;;-4.07;100.00
58239;BME280;44037;55.638;37.356;2022-12-18T00:18:19;98547.44;;;-3.99;100.00
58239;BME280;44037;55.638;37.356;2022-12-18T00:20:46;98542.38;;;-3.99;100.00
58239;BME280;44037;55.638;37.356;2022-12-18T00:23:13;98543.28;;;-3.98;100.00
58239;BME280;44037;55.638;37.356;2022-12-18T00:25:40;98532.34;;;-3.97;100.00
58239;BME280;44037;55.638;37.356;2022-12-18T00:28:07;98535.75;;;-3.97;100.00
58239;BME280;44037;55.638;37.356;2022-12-18T00:30:34;98530.84;;;-3.94;100.00
58239;BME280;44037;55.638;37.356;2022-12-18T00:33:03;98535.81;;;-3.95;100.00
58239;BME280;44037;55.638;37.356;2022-12-18T00:35:31;98535.91;;;-3.94;100.00
58239;BME280;44037;55.638;37.356;2022-12-18T00:37:58;98518.25;;;-3.92;100.00
58239;BME280;44037;55.638;37.356;2022-12-18T00:40:25;98530.84;;;-3.94;100.00
58239;BME280;44037;55.638;37.356;2022-12-18T00:42:52;98525.03;;;-3.91;100.00
58239;BME280;44037;55.638;37.356;2022-12-18T00:45:25;98510.59;;;-3.94;100.00
58239;BME280;44037;55.638;37.356;2022-12-18T00:47:52;98509.72;;;-3.94;100.00
58239;BME280;44037;55.638;37.356;2022-12-18T00:50:22;98508.84;;;-3.95;100.00
58239;BME280;44037;55.638;37.356;2022-12-18T00:52:49;98496.84;;;-3.99;100.00
58239;BME280;44037;55.638;37.356;2022-12-18T00:55:17;98491.94;;;-3.96;100.00
58239;BME280;44037;55.638;37.356;2022-12-18T00:57:44;98494.09;;;-4.04;100.00
58239;BME280;44037;55.638;37.356;2022-12-18T01:00:14;98482.94;;;-4.07;100.00
58239;BME280;44037;55.638;37.356;2022-12-18T01:02:41;98481.06;;;-4.11;100.00
58239;BME280;44037;55.638;37.356;2022-12-18T01:05:10;98479.03;;;-4.19;100.00
58239;BME280;44037;55.638;37.356;2022-12-18T01:07:39;98478.88;;;-4.22;100.00
58239;BME280;44037;55.638;37.356;2022-12-18T01:10:08;98486.09;;;-4.29;100.00
58239;BME280;44037;55.638;37.356;2022-12-18T01:12:35;98466.72;;;-4.29;100.00
58239;BME280;44037;55.638;37.356;2022-12-18T01:15:04;98479.06;;;-4.35;100.00
58239;BME280;44037;55.638;37.356;2022-12-18T01:17:32;98475.69;;;-4.36;100.00
58239;BME280;44037;55.638;37.356;2022-12-18T01:19:59;98466.97;;;-4.41;100.00
58239;BME280;44037;55.638;37.356;2022-12-18T01:22:26;98478.44;;;-4.48;100.00
58239;BME280;44037;55.638;37.356;2022-12-18T01:24:55;98478.50;;;-4.46;100.00
58239;BME280;44037;55.638;37.356;2022-12-18T01:27:22;98486.75;;;-4.50;100.00
58239;BME280;44037;55.638;37.356;2022-12-18T01:29:49;98476.66;;;-4.50;100.00
58239;BME280;44037;55.638;37.356;2022-12-18T01:32:16;98479.31;;;-4.47;100.00
58239;BME280;44037;55.638;37.356;2022-12-18T01:34:44;98485.19;;;-4.48;100.00
58239;BME280;44037;55.638;37.356;2022-12-18T01:37:11;98479.06;;;-4.52;100.00
58239;BME280;44037;55.638;37.356;2022-12-18T01:39:38;98487.63;;;-4.50;100.00
58239;BME280;44037;55.638;37.356;2022-12-18T01:42:09;98470.63;;;-4.52;100.00
58239;BME280;44037;55.638;37.356;2022-12-18T01:45:03;98474.69;;;-4.56;100.00
58239;BME280;44037;55.638;37.356;2022-12-18T01:47:35;98475.63;;;-4.54;100.00
58239;BME280;44037;55.638;37.356;2022-12-18T01:50:07;98487.38;;;-4.54;100.00
58239;BME280;44037;55.638;37.356;2022-12-18T01:52:35;98479.72;;;-4.56;100.00
58239;BME280;44037;55.638;37.356;2022-12-18T01:55:06;98471.19;;;-4.58;100.00
58239;BME280;44037;55.638;37.356;2022-12-18T01:57:35;98471.94;;;-4.60;100.00
58239;BME280;44037;55.638;37.356;2022-12-18T02:00:07;98465.03;;;-4.63;100.00
58239;BME280;44037;55.638;37.356;2022-12-18T02:02:34;98466.78;;;-4.62;100.00
58239;BME280;44037;55.638;37.356;2022-12-18T02:05:02;98465.44;;;-4.72;100.00
58239;BME280;44037;55.638;37.356;2022-12-18T02:07:37;98482.91;;;-4.76;100.00
58239;BME280;44037;55.638;37.356;2022-12-18T02:10:12;98474.28;;;-4.80;100.00
58239;BME280;44037;55.638;37.356;2022-12-18T02:12:48;98485.19;;;-4.81;100.00
58239;BME280;44037;55.638;37.356;2022-12-18T02:15:19;98475.06;;;-4.81;100.00
58239;BME280;44037;55.638;37.356;2022-12-18T02:17:55;98473.19;;;-4.85;100.00
58239;BME280;44037;55.638;37.356;2022-12-18T02:20:28;98482.25;;;-4.89;100.00
58239;BME280;44037;55.638;37.356;2022-12-18T02:23:06;98472.88;;;-4.91;100.00
58239;BME280;44037;55.638;37.356;2022-12-18T02:25:53;98456.59;;;-4.97;100.00
58239;BME280;44037;55.638;37.356;2022-12-18T02:28:30;98472.41;;;-5.01;100.00
58239;BME280;44037;55.638;37.356;2022-12-18T02:31:01;98471.22;;;-5.07;100.00
58239;BME280;44037;55.638;37.356;2022-12-18T02:33:30;98476.81;;;-5.13;100.00
58239;BME280;44037;55.638;37.356;2022-12-18T02:36:00;98473.50;;;-5.12;100.00
58239;BME280;44037;55.638;37.356;2022-12-18T02:38:29;98482.25;;;-5.22;100.00
58239;BME280;44037;55.638;37.356;2022-12-18T02:40:59;98471.44;;;-5.19;100.00
58239;BME280;44037;55.638;37.356;2022-12-18T02:43:27;98474.59;;;-5.23;100.00
58239;BME280;44037;55.638;37.356;2022-12-18T02:45:56;98480.19;;;-5.29;100.00
58239;BME280;44037;55.638;37.356;2022-12-18T02:48:24;98475.81;;;-5.32;100.00
58239;BME280;44037;55.638;37.356;2022-12-18T02:50:59;98489.94;;;-5.35;100.00
58239;BME280;44037;55.638;37.356;2022-12-18T02:53:35;98492.25;;;-5.40;100.00
58239;BME280;44037;55.638;37.356;2022-12-18T02:56:09;98487.56;;;-5.49;100.00
58239;BME280;44037;55.638;37.356;2022-12-18T02:58:45;98476.84;;;-5.45;100.00
58239;BME280;44037;55.638;37.356;2022-12-18T03:01:17;98475.00;;;-5.47;100.00
58239;BME280;44037;55.638;37.356;2022-12-18T03:03:49;98465.72;;;-5.48;100.00
58239;BME280;44037;55.638;37.356;2022-12-18T03:06:23;98485.97;;;-5.47;100.00
58239;BME280;44037;55.638;37.356;2022-12-18T03:08:54;98468.75;;;-5.54;100.00
58239;BME280;44037;55.638;37.356;2022-12-18T03:11:27;98462.78;;;-5.56;100.00
58239;BME280;44037;55.638;37.356;2022-12-18T03:14:12;98491.09;;;-5.62;100.00
58239;BME280;44037;55.638;37.356;2022-12-18T03:16:43;98488.38;;;-5.65;100.00
58239;BME280;44037;55.638;37.356;2022-12-18T03:19:14;98528.66;;;-5.66;100.00
58239;BME280;44037;55.638;37.356;2022-12-18T03:21:46;98490.56;;;-5.71;100.00
58239;BME280;44037;55.638;37.356;2022-12-18T03:24:15;98478.03;;;-5.69;100.00
58239;BME280;44037;55.638;37.356;2022-12-18T03:26:47;98506.41;;;-5.74;100.00
58239;BME280;44037;55.638;37.356;2022-12-18T03:29:18;98483.28;;;-5.81;100.00
58239;BME280;44037;55.638;37.356;2022-12-18T03:31:51;98473.28;;;-5.80;100.00
58239;BME280;44037;55.638;37.356;2022-12-18T03:34:24;98480.50;;;-5.86;100.00
58239;BME280;44037;55.638;37.356;2022-12-18T03:36:53;98471.09;;;-5.89;100.00
58239;BME280;44037;55.638;37.356;2022-12-18T03:39:20;98469.25;;;-5.91;100.00
58239;BME280;44037;55.638;37.356;2022-12-18T03:41:52;98466.28;;;-6.00;100.00
58239;BME280;44037;55.638;37.356;2022-12-18T03:44:24;98473.38;;;-5.93;100.00
58239;BME280;44037;55.638;37.356;2022-12-18T03:46:59;98492.19;;;-6.03;100.00
58239;BME280;44037;55.638;37.356;2022-12-18T03:49:35;98493.06;;;-6.03;100.00
58239;BME280;44037;55.638;37.356;2022-12-18T03:52:06;98494.91;;;-6.00;100.00
58239;BME280;44037;55.638;37.356;2022-12-18T03:54:35;98497.66;;;-6.10;100.00
58239;BME280;44037;55.638;37.356;2022-12-18T03:57:08;98475.84;;;-6.10;100.00
58239;BME280;44037;55.638;37.356;2022-12-18T03:59:39;98485.69;;;-6.14;100.00
58239;BME280;44037;55.638;37.356;2022-12-18T04:02:08;98483.06;;;-6.16;100.00
58239;BME280;44037;55.638;37.356;2022-12-18T04:04:35;98513.69;;;-6.10;100.00
58239;BME280;44037;55.638;37.356;2022-12-18T04:07:05;98524.47;;;-6.12;100.00
58239;BME280;44037;55.638;37.356;2022-12-18T04:09:34;98543.88;;;-6.11;100.00
58239;BME280;44037;55.638;37.356;2022-12-18T04:12:05;98530.97;;;-6.16;100.00
58239;BME280;44037;55.638;37.356;2022-12-18T04:14:32;98541.25;;;-6.13;100.00
58239;BME280;44037;55.638;37.356;2022-12-18T04:17:01;98516.91;;;-6.12;100.00
58239;BME280;44037;55.638;37.356;2022-12-18T04:19:28;98555.59;;;-6.12;100.00
58239;BME280;44037;55.638;37.356;2022-12-18T04:21:55;98543.59;;;-6.16;100.00
58239;BME280;44037;55.638;37.356;2022-12-18T04:24:22;98548.75;;;-6.14;100.00
58239;BME280;44037;55.638;37.356;2022-12-18T04:26:49;98548.91;;;-6.11;100.00
58239;BME280;44037;55.638;37.356;2022-12-18T04:29:17;98527.84;;;-6.12;100.00
58239;BME280;44037;55.638;37.356;2022-12-18T04:31:44;98566.66;;;-6.10;100.00
58239;BME280;44037;55.638;37.356;2022-12-18T04:34:11;98555.53;;;-6.13;100.00
58239;BME280;44037;55.638;37.356;2022-12-18T04:36:38;98569.25;;;-6.08;100.00
58239;BME280;44037;55.638;37.356;2022-12-18T04:39:05;98566.66;;;-6.10;100.00
58239;BME280;44037;55.638;37.356;2022-12-18T04:41:33;98534.47;;;-6.14;100.00
58239;BME280;44037;55.638;37.356;2022-12-18T04:44:00;98542.47;;;-6.21;100.00
58239;BME280;44037;55.638;37.356;2022-12-18T04:46:29;98585.41;;;-6.20;100.00
58239;BME280;44037;55.638;37.356;2022-12-18T04:48:56;98556.19;;;-6.16;100.00
58239;BME280;44037;55.638;37.356;2022-12-18T04:51:23;98564.47;;;-6.19;100.00
58239;BME280;44037;55.638;37.356;2022-12-18T04:53:50;98564.47;;;-6.19;100.00
58239;BME280;44037;55.638;37.356;2022-12-18T04:56:17;98567.88;;;-6.18;100.00
58239;BME280;44037;55.638;37.356;2022-12-18T04:58:44;98559.34;;;-6.20;100.00
58239;BME280;44037;55.638;37.356;2022-12-18T05:01:12;98559.34;;;-6.20;100.00
58239;BME280;44037;55.638;37.356;2022-12-18T05:03:40;98603.56;;;-6.25;100.00
58239;BME280;44037;55.638;37.356;2022-12-18T05:06:08;98593.22;;;-6.30;100.00
58239;BME280;44037;55.638;37.356;2022-12-18T05:08:35;98580.88;;;-6.25;100.00
58239;BME280;44037;55.638;37.356;2022-12-18T05:11:03;98564.63;;;-6.30;100.00
58239;BME280;44037;55.638;37.356;2022-12-18T05:13:31;98582.75;;;-6.36;100.00
58239;BME280;44037;55.638;37.356;2022-12-18T05:15:58;98598.91;;;-6.48;100.00
58239;BME280;44037;55.638;37.356;2022-12-18T05:18:26;98601.34;;;-6.49;100.00
58239;BME280;44037;55.638;37.356;2022-12-18T05:20:55;98611.81;;;-6.43;100.00
58239;BME280;44037;55.638;37.356;2022-12-18T05:23:23;98605.09;;;-6.42;100.00
58239;BME280;44037;55.638;37.356;2022-12-18T05:25:51;98627.72;;;-6.44;100.00
58239;BME280;44037;55.638;37.356;2022-12-18T05:28:18;98620.31;;;-6.41;100.00
58239;BME280;44037;55.638;37.356;2022-12-18T05:30:48;98624.41;;;-6.43;100.00
58239;BME280;44037;55.638;37.356;2022-12-18T05:33:16;98622.06;;;-6.40;100.00
58239;BME280;44037;55.638;37.356;2022-12-18T05:35:43;98622.31;;;-6.35;100.00
58239;BME280;44037;55.638;37.356;2022-12-18T05:38:12;98631.56;;;-6.36;100.00
58239;BME280;44037;55.638;37.356;2022-12-18T05:40:41;98624.19;;;-6.33;100.00
58239;BME280;44037;55.638;37.356;2022-12-18T05:43:09;98630.97;;;-6.31;100.00
58239;BME280;44037;55.638;37.356;2022-12-18T05:45:37;98658.50;;;-6.35;100.00
58239;BME280;44037;55.638;37.356;2022-12-18T05:48:05;98656.75;;;-6.36;100.00
58239;BME280;44037;55.638;37.356;2022-12-18T05:50:34;98655.44;;;-6.44;100.00
58239;BME280;44037;55.638;37.356;2022-12-18T05:53:02;98640.31;;;-6.44;100.00
58239;BME280;44037;55.638;37.356;2022-12-18T05:55:32;98666.38;;;-6.43;100.00
58239;BME280;44037;55.638;37.356;2022-12-18T05:58:00;98684.09;;;-6.42;100.00
58239;BME280;44037;55.638;37.356;2022-12-18T06:00:27;98659.97;;;-6.38;100.00
58239;BME280;44037;55.638;37.356;2022-12-18T06:02:54;98658.31;;;-6.38;100.00
58239;BME280;44037;55.638;37.356;2022-12-18T06:05:21;98662.66;;;-6.35;100.00
58239;BME280;44037;55.638;37.356;2022-12-18T06:07:48;98665.50;;;-6.30;100.00
58239;BME280;44037;55.638;37.356;2022-12-18T06:10:15;98681.66;;;-6.27;100.00
58239;BME280;44037;55.638;37.356;2022-12-18T06:12:43;98704.16;;;-6.30;100.00
58239;BME280;44037;55.638;37.356;2022-12-18T06:15:11;98691.84;;;-6.25;100.00
58239;BME280;44037;55.638;37.356;2022-12-18T06:17:38;98688.53;;;-6.24;100.00
58239;BME280;44037;55.638;37.356;2022-12-18T06:20:05;98698.53;;;-6.26;100.00
58239;BME280;44037;55.638;37.356;2022-12-18T06:22:32;98705.22;;;-6.26;100.00
58239;BME280;44037;55.638;37.356;2022-12-18T06:25:00;98687.56;;;-6.26;100.00
58239;BME280;44037;55.638;37.356;2022-12-18T06:27:27;98697.00;;;-6.24;100.00
58239;BME280;44037;55.638;37.356;2022-12-18T06:29:55;98717.25;;;-6.22;100.00
58239;BME280;44037;55.638;37.356;2022-12-18T06:32:22;98729.94;;;-6.21;100.00
58239;BME280;44037;55.638;37.356;2022-12-18T06:34:49;98748.56;;;-6.19;100.00
58239;BME280;44037;55.638;37.356;2022-12-18T06:37:16;98736.91;;;-6.17;100.00
58239;BME280;44037;55.638;37.356;2022-12-18T06:39:44;98752.75;;;-6.19;100.00
58239;BME280;44037;55.638;37.356;2022-12-18T06:42:11;98754.66;;;-6.15;100.00
58239;BME280;44037;55.638;37.356;2022-12-18T06:44:38;98757.94;;;-6.16;100.00
58239;BME280;44037;55.638;37.356;2022-12-18T06:47:06;98767.38;;;-6.13;100.00
58239;BME280;44037;55.638;37.356;2022-12-18T06:49:33;98784.06;;;-6.15;100.00
58239;BME280;44037;55.638;37.356;2022-12-18T06:52:00;98763.19;;;-6.13;100.00
58239;BME280;44037;55.638;37.356;2022-12-18T06:54:27;98778.53;;;-6.10;100.00
58239;BME280;44037;55.638;37.356;2022-12-18T06:56:55;98772.50;;;-6.12;100.00
58239;BME280;44037;55.638;37.356;2022-12-18T06:59:22;98775.22;;;-6.09;100.00
58239;BME280;44037;55.638;37.356;2022-12-18T07:01:50;98784.53;;;-6.08;100.00
58239;BME280;44037;55.638;37.356;2022-12-18T07:04:18;98777.63;;;-6.10;100.00
58239;BME280;44037;55.638;37.356;2022-12-18T07:06:45;98792.19;;;-6.06;100.00
58239;BME280;44037;55.638;37.356;2022-12-18T07:09:12;98797.66;;;-5.98;100.00
58239;BME280;44037;55.638;37.356;2022-12-18T07:11:39;98808.03;;;-5.94;100.00
58239;BME280;44037;55.638;37.356;2022-12-18T07:14:06;98816.13;;;-5.99;100.00
58239;BME280;44037;55.638;37.356;2022-12-18T07:16:33;98827.69;;;-6.03;100.00
58239;BME280;44037;55.638;37.356;2022-12-18T07:19:00;98831.28;;;-5.99;100.00
58239;BME280;44037;55.638;37.356;2022-12-18T07:21:28;98806.03;;;-5.99;100.00
58239;BME280;44037;55.638;37.356;2022-12-18T07:23:56;98811.94;;;-5.99;100.00
58239;BME280;44037;55.638;37.356;2022-12-18T07:26:23;98832.53;;;-6.06;100.00
58239;BME280;44037;55.638;37.356;2022-12-18T07:28:54;98819.59;;;-5.97;100.00
58239;BME280;44037;55.638;37.356;2022-12-18T07:31:23;98820.47;;;-5.97;100.00
58239;BME280;44037;55.638;37.356;2022-12-18T07:33:51;98830.56;;;-5.97;100.00
58239;BME280;44037;55.638;37.356;2022-12-18T07:36:18;98845.69;;;-5.97;100.00
58239;BME280;44037;55.638;37.356;2022-12-18T07:38:48;98837.34;;;-5.96;100.00
58239;BME280;44037;55.638;37.356;2022-12-18T07:41:15;98822.19;;;-5.96;100.00
58239;BME280;44037;55.638;37.356;2022-12-18T07:43:44;98816.50;;;-5.93;100.00
58239;BME280;44037;55.638;37.356;2022-12-18T07:46:12;98835.78;;;-5.94;100.00
58239;BME280;44037;55.638;37.356;2022-12-18T07:48:40;98841.88;;;-5.90;100.00
58239;BME280;44037;55.638;37.356;2022-12-18T07:51:07;98849.06;;;-5.83;100.00
58239;BME280;44037;55.638;37.356;2022-12-18T07:53:36;98850.41;;;-5.75;100.00
58239;BME280;44037;55.638;37.356;2022-12-18T07:56:06;98834.28;;;-5.77;100.00
58239;BME280;44037;55.638;37.356;2022-12-18T07:58:34;98852.94;;;-5.75;100.00
58239;BME280;44037;55.638;37.356;2022-12-18T08:01:04;98873.69;;;-5.79;100.00
58239;BME280;44037;55.638;37.356;2022-12-18T08:03:33;98880.50;;;-5.78;100.00
58239;BME280;44037;55.638;37.356;2022-12-18T08:06:00;98885.75;;;-5.75;100.00
58239;BME280;44037;55.638;37.356;2022-12-18T08:08:27;98884.75;;;-5.77;100.00
58239;BME280;44037;55.638;37.356;2022-12-18T08:10:55;98892.03;;;-5.68;100.00
58239;BME280;44037;55.638;37.356;2022-12-18T08:13:24;98892.31;;;-5.63;100.00
58239;BME280;44037;55.638;37.356;2022-12-18T08:15:58;98901.34;;;-5.67;100.00
58239;BME280;44037;55.638;37.356;2022-12-18T08:18:26;98894.75;;;-5.65;100.00
58239;BME280;44037;55.638;37.356;2022-12-18T08:20:54;98899.59;;;-5.68;100.00
58239;BME280;44037;55.638;37.356;2022-12-18T08:23:21;98898.16;;;-5.78;100.00
58239;BME280;44037;55.638;37.356;2022-12-18T08:25:48;98930.59;;;-5.71;100.00
58239;BME280;44037;55.638;37.356;2022-12-18T08:28:16;98914.06;;;-5.65;100.00
58239;BME280;44037;55.638;37.356;2022-12-18T08:30:44;98925.91;;;-5.64;100.00
58239;BME280;44037;55.638;37.356;2022-12-18T08:33:11;98921.94;;;-5.61;100.00
58239;BME280;44037;55.638;37.356;2022-12-18T08:35:38;98917.25;;;-5.55;100.00
58239;BME280;44037;55.638;37.356;2022-12-18T08:38:05;98923.56;;;-5.48;100.00
58239;BME280;44037;55.638;37.356;2022-12-18T08:40:32;98916.06;;;-5.46;100.00
58239;BME280;44037;55.638;37.356;2022-12-18T08:42:59;98916.94;;;-5.46;100.00
58239;BME280;44037;55.638;37.356;2022-12-18T08:45:45;98916.25;;;-5.43;100.00
58239;BME280;44037;55.638;37.356;2022-12-18T08:48:12;98919.38;;;-5.47;100.00
58239;BME280;44037;55.638;37.356;2022-12-18T08:50:39;98922.38;;;-5.53;100.00
58239;BME280;44037;55.638;37.356;2022-12-18T08:53:06;98931.44;;;-5.57;100.00
58239;BME280;44037;55.638;37.356;2022-12-18T08:55:34;98930.28;;;-5.62;100.00
58239;BME280;44037;55.638;37.356;2022-12-18T08:58:01;98931.34;;;-5.58;100.00
58239;BME280;44037;55.638;37.356;2022-12-18T09:00:28;98923.00;;;-5.57;100.00
58239;BME280;44037;55.638;37.356;2022-12-18T09:02:57;98918.31;;;-5.51;100.00
58239;BME280;44037;55.638;37.356;2022-12-18T09:05:24;98940.84;;;-5.54;100.00
58239;BME280;44037;55.638;37.356;2022-12-18T09:07:51;98952.19;;;-5.47;100.00
58239;BME280;44037;55.638;37.356;2022-12-18T09:10:18;98935.75;;;-5.41;100.00
58239;BME280;44037;55.638;37.356;2022-12-18T09:12:45;98948.59;;;-5.37;100.00
58239;BME280;44037;55.638;37.356;2022-12-18T09:15:12;98953.06;;;-5.33;100.00
58239;BME280;44037;55.638;37.356;2022-12-18T09:17:39;98977.81;;;-5.28;100.00
58239;BME280;44037;55.638;37.356;2022-12-18T09:20:08;98967.72;;;-5.28;100.00
58239;BME280;44037;55.638;37.356;2022-12-18T09:22:35;98974.69;;;-5.23;100.00
58239;BME280;44037;55.638;37.356;2022-12-18T09:25:03;98984.88;;;-5.22;100.00
58239;BME280;44037;55.638;37.356;2022-12-18T09:27:30;98997.09;;;-5.15;100.00
58239;BME280;44037;55.638;37.356;2022-12-18T09:29:57;98986.72;;;-5.19;100.00
58239;BME280;44037;55.638;37.356;2022-12-18T09:32:24;98997.88;;;-5.16;100.00
58239;BME280;44037;55.638;37.356;2022-12-18T09:34:51;98997.72;;;-5.19;100.00
58239;BME280;44037;55.638;37.356;2022-12-18T09:37:20;99000.31;;;-5.17;100.00
58239;BME280;44037;55.638;37.356;2022-12-18T09:39:47;98992.44;;;-5.09;100.00
58239;BME280;44037;55.638;37.356;2022-12-18T09:42:19;99006.31;;;-5.02;100.00
58239;BME280;44037;55.638;37.356;2022-12-18T09:44:50;99003.38;;;-4.95;100.00
58239;BME280;44037;55.638;37.356;2022-12-18T09:47:22;99009.47;;;-4.91;100.00
58239;BME280;44037;55.638;37.356;2022-12-18T09:49:53;98999.56;;;-4.88;100.00
58239;BME280;44037;55.638;37.356;2022-12-18T09:52:26;99008.50;;;-4.80;100.00
58239;BME280;44037;55.638;37.356;2022-12-18T09:54:58;99008.88;;;-4.87;100.00
58239;BME280;44037;55.638;37.356;2022-12-18T09:57:29;99000.59;;;-4.84;100.00
58239;BME280;44037;55.638;37.356;2022-12-18T10:00:04;99021.25;;;-4.91;100.00
58239;BME280;44037;55.638;37.356;2022-12-18T10:02:34;98990.72;;;-4.95;100.00
58239;BME280;44037;55.638;37.356;2022-12-18T10:05:06;99012.63;;;-4.95;100.00
58239;BME280;44037;55.638;37.356;2022-12-18T10:07:49;99007.38;;;-4.98;100.00
58239;BME280;44037;55.638;37.356;2022-12-18T10:10:32;99027.59;;;-4.98;100.00
58239;BME280;44037;55.638;37.356;2022-12-18T10:13:09;99017.66;;;-4.95;100.00
58239;BME280;44037;55.638;37.356;2022-12-18T10:15:46;99008.84;;;-5.02;100.00
58239;BME280;44037;55.638;37.356;2022-12-18T10:18:24;99035.94;;;-4.99;100.00
58239;BME280;44037;55.638;37.356;2022-12-18T10:20:55;99016.69;;;-4.97;100.00
58239;BME280;44037;55.638;37.356;2022-12-18T10:23:29;99040.13;;;-5.00;100.00
58239;BME280;44037;55.638;37.356;2022-12-18T10:26:02;99020.59;;;-5.02;100.00
58239;BME280;44037;55.638;37.356;2022-12-18T10:28:30;99060.66;;;-5.09;100.00
58239;BME280;44037;55.638;37.356;2022-12-18T10:30:58;99032.00;;;-5.22;100.00
58239;BME280;44037;55.638;37.356;2022-12-18T10:33:29;99058.91;;;-5.23;100.00
58239;BME280;44037;55.638;37.356;2022-12-18T10:35:57;99047.16;;;-5.22;100.00
58239;BME280;44037;55.638;37.356;2022-12-18T10:38:27;99040.38;;;-5.23;100.00
58239;BME280;44037;55.638;37.356;2022-12-18T10:40:56;99043.75;;;-5.23;100.00
58239;BME280;44037;55.638;37.356;2022-12-18T10:43:25;99055.34;;;-5.27;100.00
58239;BME280;44037;55.638;37.356;2022-12-18T10:46:14;99048.72;;;-5.25;100.00
58239;BME280;44037;55.638;37.356;2022-12-18T10:48:53;99051.25;;;-5.25;100.00
58239;BME280;44037;55.638;37.356;2022-12-18T10:51:24;99062.41;;;-5.21;100.00
58239;BME280;44037;55.638;37.356;2022-12-18T10:53:55;99082.06;;;-5.17;100.00
58239;BME280;44037;55.638;37.356;2022-12-18T10:56:24;99088.81;;;-5.16;100.00
58239;BME280;44037;55.638;37.356;2022-12-18T10:58:58;99101.66;;;-5.13;100.00
58239;BME280;44037;55.638;37.356;2022-12-18T11:01:26;99106.91;;;-5.23;100.00
58239;BME280;44037;55.638;37.356;2022-12-18T11:04:01;99104.00;;;-5.29;100.00
58239;BME280;44037;55.638;37.356;2022-12-18T11:06:29;99090.00;;;-5.24;100.00
58239;BME280;44037;55.638;37.356;2022-12-18T11:09:03;99105.72;;;-5.28;100.00
58239;BME280;44037;55.638;37.356;2022-12-18T11:11:31;99091.47;;;-5.28;100.00
58239;BME280;44037;55.638;37.356;2022-12-18T11:14:01;99095.47;;;-5.31;100.00
58239;BME280;44037;55.638;37.356;2022-12-18T11:16:32;99088.66;;;-5.32;100.00
58239;BME280;44037;55.638;37.356;2022-12-18T11:19:19;99088.16;;;-5.40;100.00
58239;BME280;44037;55.638;37.356;2022-12-18T11:21:47;99082.53;;;-5.36;100.00
58239;BME280;44037;55.638;37.356;2022-12-18T11:24:20;99087.88;;;-5.31;100.00
58239;BME280;44037;55.638;37.356;2022-12-18T11:26:50;99098.00;;;-5.31;100.00
58239;BME280;44037;55.638;37.356;2022-12-18T11:29:18;99093.72;;;-5.32;100.00
58239;BME280;44037;55.638;37.356;2022-12-18T11:31:49;99121.56;;;-5.31;100.00
58239;BME280;44037;55.638;37.356;2022-12-18T11:34:22;99129.44;;;-5.26;100.00
58239;BME280;44037;55.638;37.356;2022-12-18T11:36:52;99116.16;;;-5.23;100.00
58239;BME280;44037;55.638;37.356;2022-12-18T11:39:27;99123.53;;;-5.27;100.00
58239;BME280;44037;55.638;37.356;2022-12-18T11:42:02;99111.00;;;-5.25;100.00
58239;BME280;44037;55.638;37.356;2022-12-18T11:44:42;99128.88;;;-5.22;100.00
58239;BME280;44037;55.638;37.356;2022-12-18T11:47:16;99122.94;;;-5.22;100.00
58239;BME280;44037;55.638;37.356;2022-12-18T11:49:47;99148.50;;;-5.18;100.00
58239;BME280;44037;55.638;37.356;2022-12-18T11:52:18;99141.72;;;-5.19;100.00
58239;BME280;44037;55.638;37.356;2022-12-18T11:54:52;99164.63;;;-5.16;100.00
58239;BME280;44037;55.638;37.356;2022-12-18T11:57:28;99186.56;;;-5.15;100.00
58239;BME280;44037;55.638;37.356;2022-12-18T12:00:04;99168.81;;;-5.16;100.00
58239;BME280;44037;55.638;37.356;2022-12-18T12:02:43;99181.91;;;-5.22;100.00
58239;BME280;44037;55.638;37.356;2022-12-18T12:05:37;99165.31;;;-5.18;100.00
58239;BME280;44037;55.638;37.356;2022-12-18T12:08:13;99194.75;;;-5.19;100.00
58239;BME280;44037;55.638;37.356;2022-12-18T12:10:53;99184.34;;;-5.23;100.00
58239;BME280;44037;55.638;37.356;2022-12-18T12:13:30;99205.41;;;-5.36;100.00
58239;BME280;44037;55.638;37.356;2022-12-18T12:16:09;99198.59;;;-5.37;100.00
58239;BME280;44037;55.638;37.356;2022-12-18T12:18:51;99219.00;;;-5.34;100.00
58239;BME280;44037;55.638;37.356;2022-12-18T12:21:27;99212.22;;;-5.35;100.00
58239;BME280;44037;55.638;37.356;2022-12-18T12:24:00;99215.41;;;-5.38;100.00
58239;BME280;44037;55.638;37.356;2022-12-18T12:26:41;99228.44;;;-5.32;100.00
58239;BME280;44037;55.638;37.356;2022-12-18T12:29:25;99230.19;;;-5.31;100.00
58239;BME280;44037;55.638;37.356;2022-12-18T12:32:07;99222.53;;;-5.32;100.00
58239;BME280;44037;55.638;37.356;2022-12-18T12:34:46;99227.78;;;-5.29;100.00
58239;BME280;44037;55.638;37.356;2022-12-18T12:37:24;99228.72;;;-5.27;100.00
58239;BME280;44037;55.638;37.356;2022-12-18T12:39:56;99242.25;;;-5.27;100.00
58239;BME280;44037;55.638;37.356;2022-12-18T12:42:30;99249.53;;;-5.31;100.00
58239;BME280;44037;55.638;37.356;2022-12-18T12:45:22;99245.34;;;-5.31;100.00
58239;BME280;44037;55.638;37.356;2022-12-18T12:47:51;99286.44;;;-5.33;100.00
58239;BME280;44037;55.638;37.356;2022-12-18T12:50:20;99256.59;;;-5.39;100.00
58239;BME280;44037;55.638;37.356;2022-12-18T12:52:50;99274.56;;;-5.34;100.00
58239;BME280;44037;55.638;37.356;2022-12-18T12:55:20;99270.81;;;-5.28;100.00